createdAt,value
2022-10-04T00:00:53.486Z,2.5
2022-10-04T00:02:09.778Z,2.3
2022-10-04T00:03:26.072Z,2.4
2022-10-04T00:04:42.374Z,2.5
2022-10-04T00:05:58.676Z,2.5
2022-10-04T00:07:14.953Z,2.5
2022-10-04T00:08:30.276Z,2.7
2022-10-04T00:09:45.582Z,2.7
2022-10-04T00:11:01.877Z,2.5
2022-10-04T00:12:18.180Z,2.4
2022-10-04T00:13:34.477Z,2.4
2022-10-04T00:14:50.760Z,2.5
2022-10-04T00:17:23.345Z,2.6
2022-10-04T00:18:39.648Z,2.5
2022-10-04T00:19:55.946Z,2.7
2022-10-04T00:21:12.245Z,2.6
2022-10-04T00:22:28.535Z,2.6
2022-10-04T00:25:01.124Z,2.6
2022-10-04T00:26:16.445Z,2.5
2022-10-04T00:27:31.739Z,2.9
2022-10-04T00:28:48.039Z,2.6
2022-10-04T00:30:04.334Z,3.1
2022-10-04T00:32:36.922Z,2.8
2022-10-04T00:33:53.223Z,2.6
2022-10-04T00:35:09.508Z,2.5
2022-10-04T00:36:25.810Z,2.8
2022-10-04T00:37:42.090Z,2.8
2022-10-04T00:38:58.398Z,2.7
2022-10-04T00:40:14.677Z,2.6
2022-10-04T00:41:30.983Z,2.6
2022-10-04T00:42:47.283Z,3.1
2022-10-04T00:44:02.586Z,2.7
2022-10-04T00:45:18.884Z,2.9
2022-10-04T00:47:51.465Z,3
2022-10-04T00:49:07.770Z,2.7
2022-10-04T00:50:23.087Z,2.5
2022-10-04T00:51:38.397Z,2.8
2022-10-04T00:52:54.680Z,2.5
2022-10-04T00:54:10.982Z,2.8
2022-10-04T00:55:27.277Z,2.9
2022-10-04T00:56:43.567Z,2.7
2022-10-04T00:57:59.855Z,2.9
2022-10-04T00:59:16.161Z,2.5
2022-10-04T01:03:05.034Z,2.8
2022-10-04T01:04:21.325Z,2.8
2022-10-04T01:05:37.635Z,2.5
2022-10-04T01:06:53.915Z,2.7
2022-10-04T01:08:10.209Z,2.6
2022-10-04T01:09:25.516Z,2.8
2022-10-04T01:10:41.812Z,2.8
2022-10-04T01:11:58.109Z,3
2022-10-04T01:13:14.410Z,2.9
2022-10-04T01:14:30.706Z,2.7
2022-10-04T01:15:46.990Z,2.6
2022-10-04T01:18:18.597Z,2.6
2022-10-04T01:19:33.924Z,2.7
2022-10-04T01:20:50.207Z,2.8
2022-10-04T01:22:06.505Z,2.7
2022-10-04T01:23:22.808Z,2.5
2022-10-04T01:24:39.091Z,2.9
2022-10-04T01:25:55.392Z,2.7
2022-10-04T01:27:11.677Z,2.7
2022-10-04T01:28:27.991Z,2.7
2022-10-04T01:29:43.293Z,2.6
2022-10-04T01:30:58.595Z,2.7
2022-10-04T01:33:31.195Z,2.9
2022-10-04T01:34:47.498Z,2.7
2022-10-04T01:36:03.784Z,2.6
2022-10-04T01:37:20.068Z,2.8
2022-10-04T01:38:36.369Z,2.6
2022-10-04T01:39:52.675Z,2.7
2022-10-04T01:41:08.969Z,2.9
2022-10-04T01:42:25.255Z,2.7
2022-10-04T01:43:41.548Z,2.9
2022-10-04T01:46:14.135Z,2.9
2022-10-04T01:47:29.453Z,3
2022-10-04T01:48:44.771Z,2.8
2022-10-04T01:50:01.053Z,2.8
2022-10-04T01:51:17.344Z,2.8
2022-10-04T01:52:33.642Z,2.9
2022-10-04T01:53:49.948Z,2.7
2022-10-04T01:55:06.222Z,2.7
2022-10-04T01:56:22.524Z,3
2022-10-04T01:57:38.830Z,3
2022-10-04T01:58:55.123Z,2.9
2022-10-04T02:00:11.408Z,3
2022-10-04T02:01:27.693Z,3
2022-10-04T02:02:43.020Z,2.8
2022-10-04T02:03:58.332Z,2.9
2022-10-04T02:05:14.614Z,2.9
2022-10-04T02:06:30.924Z,3.1
2022-10-04T02:07:47.222Z,3
2022-10-04T02:09:03.511Z,3.1
2022-10-04T02:11:36.086Z,3.2
2022-10-04T02:12:52.391Z,3.4
2022-10-04T02:14:08.687Z,3.5
2022-10-04T02:15:24.979Z,3.7
2022-10-04T02:16:41.281Z,3.5
2022-10-04T02:17:57.559Z,3.6
2022-10-04T02:19:13.853Z,3.7
2022-10-04T02:20:29.165Z,3.7
2022-10-04T02:21:45.471Z,3.6
2022-10-04T02:23:01.752Z,3.5
2022-10-04T02:24:18.054Z,3.8
2022-10-04T02:25:34.349Z,4.1
2022-10-04T02:26:50.651Z,3.9
2022-10-04T02:28:06.938Z,3.9
2022-10-04T02:29:23.241Z,3.9
2022-10-04T02:30:39.527Z,4
2022-10-04T02:33:12.104Z,4.1
2022-10-04T02:34:28.410Z,4.2
2022-10-04T02:35:44.707Z,3.9
2022-10-04T02:37:00.006Z,4.1
2022-10-04T02:38:15.332Z,4.1
2022-10-04T02:39:31.613Z,4.3
2022-10-04T02:40:46.939Z,4.1
2022-10-04T02:42:03.224Z,4.6
2022-10-04T02:44:35.814Z,4.3
2022-10-04T02:45:52.104Z,4.5
2022-10-04T02:47:08.413Z,4.3
2022-10-04T02:48:24.700Z,4.5
2022-10-04T02:49:40.982Z,4.5
2022-10-04T02:50:57.286Z,4.4
2022-10-04T02:52:13.582Z,4.4
2022-10-04T02:53:29.878Z,4.7
2022-10-04T02:54:46.167Z,4.8
2022-10-04T02:57:18.760Z,4.8
2022-10-04T02:58:34.065Z,5
2022-10-04T02:59:49.386Z,5
2022-10-04T03:02:21.959Z,5
2022-10-04T03:03:38.262Z,5.2
2022-10-04T03:04:54.566Z,5
2022-10-04T03:06:10.859Z,5
2022-10-04T03:07:27.153Z,5.3
2022-10-04T03:08:43.452Z,5.7
2022-10-04T03:09:59.744Z,5.5
2022-10-04T03:11:16.028Z,5.5
2022-10-04T03:12:32.332Z,5.7
2022-10-04T03:13:48.616Z,5.7
2022-10-04T03:15:04.918Z,5.6
2022-10-04T03:16:20.218Z,5.7
2022-10-04T03:17:36.521Z,5.7
2022-10-04T03:18:52.821Z,6
2022-10-04T03:20:09.107Z,5.9
2022-10-04T03:21:25.404Z,6
2022-10-04T03:22:41.701Z,6
2022-10-04T03:23:57.993Z,5.8
2022-10-04T03:25:14.295Z,6.3
2022-10-04T03:26:29.592Z,6.2
2022-10-04T03:27:44.901Z,6
2022-10-04T03:29:01.211Z,5.9
2022-10-04T03:30:17.505Z,6.4
2022-10-04T03:31:33.799Z,5.9
2022-10-04T03:32:50.097Z,6.1
2022-10-04T03:35:22.670Z,6
2022-10-04T03:36:38.966Z,6
2022-10-04T03:37:55.255Z,6.3
2022-10-04T03:39:11.551Z,5.9
2022-10-04T03:40:27.865Z,5.9
2022-10-04T03:41:44.154Z,5.9
2022-10-04T03:43:00.446Z,5.9
2022-10-04T03:44:15.757Z,5.7
2022-10-04T03:45:32.040Z,5.5
2022-10-04T03:46:48.350Z,6.1
2022-10-04T03:48:04.630Z,5.6
2022-10-04T03:49:20.922Z,5.6
2022-10-04T03:50:37.230Z,5.9
2022-10-04T03:51:53.524Z,5.7
2022-10-04T03:53:09.820Z,5.8
2022-10-04T03:54:26.113Z,5.7
2022-10-04T03:55:42.399Z,5.8
2022-10-04T03:58:14.989Z,5.8
2022-10-04T03:59:31.275Z,6.1
2022-10-04T04:00:46.585Z,5.7
2022-10-04T04:02:02.891Z,6
2022-10-04T04:03:19.190Z,5.8
2022-10-04T04:04:35.483Z,6
2022-10-04T04:05:51.767Z,5.8
2022-10-04T04:07:08.059Z,6.1
2022-10-04T04:08:24.366Z,6
2022-10-04T04:09:40.654Z,6.4
2022-10-04T04:10:56.949Z,6.2
2022-10-04T04:12:13.247Z,6.4
2022-10-04T04:13:29.528Z,6.3
2022-10-04T04:14:45.825Z,6.1
2022-10-04T04:16:02.121Z,6.1
2022-10-04T04:17:17.441Z,6.2
2022-10-04T04:18:33.719Z,6.4
2022-10-04T04:19:50.019Z,6.3
2022-10-04T04:21:06.324Z,6.3
2022-10-04T04:22:22.620Z,6.1
2022-10-04T04:23:38.916Z,6.4
2022-10-04T04:24:55.205Z,5.8
2022-10-04T04:26:11.501Z,6.2
2022-10-04T04:27:27.778Z,5.9
2022-10-04T04:28:44.074Z,6.3
2022-10-04T04:30:00.375Z,6.4
2022-10-04T04:31:16.665Z,6.7
2022-10-04T04:32:32.965Z,6.5
2022-10-04T04:33:49.268Z,6.7
2022-10-04T04:35:04.580Z,6.3
2022-10-04T04:36:20.870Z,7
2022-10-04T04:37:37.115Z,6.7
2022-10-04T04:38:53.402Z,6.6
2022-10-04T04:40:09.692Z,6.4
2022-10-04T04:41:25.952Z,6.2
2022-10-04T04:43:58.475Z,6.4
2022-10-04T04:46:30.964Z,6.2
2022-10-04T04:47:47.266Z,6.2
2022-10-04T04:49:03.507Z,5.8
2022-10-04T04:50:19.757Z,6.1
2022-10-04T04:51:35.021Z,6
2022-10-04T04:52:51.248Z,6
2022-10-04T04:54:07.499Z,6.2
2022-10-04T04:55:23.739Z,6
2022-10-04T04:56:39.973Z,6.4
2022-10-04T04:57:56.222Z,6.4
2022-10-04T04:59:12.452Z,6.2
2022-10-04T05:00:28.700Z,6.1
2022-10-04T05:01:44.940Z,6.4
2022-10-04T05:03:01.172Z,6.2
2022-10-04T05:04:17.412Z,6.1
2022-10-04T05:05:33.663Z,6.8
2022-10-04T05:09:22.376Z,6.8
2022-10-04T05:10:37.639Z,6.7
2022-10-04T05:11:53.887Z,6.6
2022-10-04T05:13:09.137Z,6.7
2022-10-04T05:14:25.381Z,6.5
2022-10-04T05:15:41.607Z,6.4
2022-10-04T05:16:57.844Z,6.5
2022-10-04T05:18:14.099Z,6.6
2022-10-04T05:19:30.329Z,6.4
2022-10-04T05:20:46.574Z,6.6
2022-10-04T05:22:02.822Z,6.2
2022-10-04T05:23:19.066Z,6.4
2022-10-04T05:24:34.315Z,6.3
2022-10-04T05:25:49.581Z,6
2022-10-04T05:27:05.808Z,6.2
2022-10-04T05:28:22.051Z,6.2
2022-10-04T05:29:38.293Z,6.6
2022-10-04T05:30:54.534Z,5.9
2022-10-04T05:32:10.786Z,6.1
2022-10-04T05:33:27.020Z,5.8
2022-10-04T05:34:43.265Z,5.9
2022-10-04T05:35:58.520Z,5.6
2022-10-04T05:37:14.749Z,5.9
2022-10-04T05:38:31.003Z,5.6
2022-10-04T05:39:47.247Z,5.5
2022-10-04T05:42:19.717Z,5.6
2022-10-04T05:43:35.961Z,5.7
2022-10-04T05:44:52.210Z,5.7
2022-10-04T05:46:08.435Z,5.5
2022-10-04T05:47:24.690Z,5.9
2022-10-04T05:48:40.919Z,5.8
2022-10-04T05:49:57.155Z,5.2
2022-10-04T05:52:29.638Z,5.3
2022-10-04T05:53:45.890Z,5.2
2022-10-04T05:55:01.135Z,4.8
2022-10-04T05:56:17.382Z,5.4
2022-10-04T05:57:33.615Z,5.1
2022-10-04T06:00:06.110Z,4.9
2022-10-04T06:01:21.357Z,4.8
2022-10-04T06:02:36.625Z,5.1
2022-10-04T06:03:52.866Z,4.9
2022-10-04T06:05:09.102Z,4.8
2022-10-04T06:06:25.339Z,4.8
2022-10-04T06:07:41.575Z,5.2
2022-10-04T06:08:57.816Z,4.9
2022-10-04T06:10:14.065Z,5.1
2022-10-04T06:11:30.309Z,4.8
2022-10-04T06:12:46.532Z,4.5
2022-10-04T06:15:19.023Z,4.6
2022-10-04T06:17:51.512Z,4.4
2022-10-04T06:19:07.750Z,4.8
2022-10-04T06:20:23.972Z,4.7
2022-10-04T06:21:39.241Z,4.6
2022-10-04T06:22:54.492Z,4.6
2022-10-04T06:24:10.732Z,4.5
2022-10-04T06:25:26.990Z,4.7
2022-10-04T06:26:43.216Z,4.2
2022-10-04T06:27:59.459Z,4.3
2022-10-04T06:29:15.692Z,4.4
2022-10-04T06:30:31.937Z,4.1
2022-10-04T06:31:48.193Z,3.8
2022-10-04T06:33:04.431Z,3.8
2022-10-04T06:34:20.656Z,4.1
2022-10-04T06:35:35.926Z,4
2022-10-04T06:36:51.182Z,3.8
2022-10-04T06:38:07.413Z,3.9
2022-10-04T06:39:23.671Z,4
2022-10-04T06:40:39.893Z,4.4
2022-10-04T06:41:56.140Z,4.1
2022-10-04T06:43:12.392Z,4.3
2022-10-04T06:44:28.634Z,4.5
2022-10-04T06:45:44.859Z,4.7
2022-10-04T06:47:01.113Z,5.1
2022-10-04T06:48:17.349Z,6.2
2022-10-04T06:49:32.616Z,7.1
2022-10-04T06:50:48.841Z,7.7
2022-10-04T06:53:20.335Z,7.8
2022-10-04T06:54:36.578Z,10.3
2022-10-04T06:55:52.833Z,8.9
2022-10-04T06:57:09.059Z,8.1
2022-10-04T06:58:25.305Z,7
2022-10-04T07:00:57.777Z,6.2
2022-10-04T07:02:14.034Z,5.3
2022-10-04T07:03:30.260Z,4.5
2022-10-04T07:06:02.749Z,4.3
2022-10-04T07:08:34.255Z,4
2022-10-04T07:09:50.484Z,3.6
2022-10-04T07:11:05.744Z,3.9
2022-10-04T07:12:21.014Z,3.5
2022-10-04T07:13:37.251Z,3.6
2022-10-04T07:16:09.715Z,3.6
2022-10-04T07:17:25.957Z,3.7
2022-10-04T07:18:42.200Z,3.6
2022-10-04T07:19:58.441Z,3.6
2022-10-04T07:21:14.680Z,3.4
2022-10-04T07:23:47.161Z,3.3
2022-10-04T07:25:03.406Z,3.3
2022-10-04T07:26:19.658Z,3.3
2022-10-04T07:28:51.144Z,3.6
2022-10-04T07:31:23.628Z,3.4
2022-10-04T07:32:39.869Z,3.5
2022-10-04T07:33:55.123Z,3.2
2022-10-04T07:35:11.382Z,3.4
2022-10-04T07:36:27.606Z,3.6
2022-10-04T07:38:59.117Z,3.4
2022-10-04T07:40:15.354Z,3.3
2022-10-04T07:41:31.595Z,3.3
2022-10-04T07:42:47.826Z,3.5
2022-10-04T07:44:04.076Z,3.4
2022-10-04T07:45:20.303Z,3.3
2022-10-04T07:47:52.794Z,2.9
2022-10-04T07:49:09.027Z,3.3
2022-10-04T07:50:25.264Z,3.1
2022-10-04T07:51:41.518Z,2.9
2022-10-04T07:52:57.758Z,3.1
2022-10-04T07:54:13.018Z,3.3
2022-10-04T07:56:45.486Z,3.1
2022-10-04T07:58:01.725Z,3.2
2022-10-04T08:00:34.205Z,3
2022-10-04T08:01:50.456Z,2.9
2022-10-04T08:03:06.700Z,2.9
2022-10-04T08:04:22.928Z,3.1
2022-10-04T08:05:39.159Z,3.1
2022-10-04T08:06:55.414Z,3.1
2022-10-04T08:08:11.656Z,3
2022-10-04T08:09:27.894Z,2.8
2022-10-04T08:10:43.156Z,2.8
2022-10-04T08:11:59.393Z,3
2022-10-04T08:13:15.632Z,3.2
2022-10-04T08:14:31.870Z,2.9
2022-10-04T08:15:48.099Z,3
2022-10-04T08:17:04.352Z,2.8
2022-10-04T08:18:20.581Z,2.9
2022-10-04T08:19:36.823Z,2.8
2022-10-04T08:20:53.060Z,2.9
2022-10-04T08:22:09.313Z,3
2022-10-04T08:23:25.546Z,2.9
2022-10-04T08:24:40.800Z,3.1
2022-10-04T08:25:57.057Z,2.9
2022-10-04T08:27:12.299Z,3.1
2022-10-04T08:28:28.556Z,3
2022-10-04T08:29:44.778Z,3
2022-10-04T08:31:01.027Z,2.9
2022-10-04T08:32:17.264Z,2.7
2022-10-04T08:33:33.498Z,3
2022-10-04T08:34:49.737Z,2.7
2022-10-04T08:36:05.976Z,2.9
2022-10-04T08:37:22.218Z,3.1
2022-10-04T08:39:53.720Z,2.9
2022-10-04T08:41:08.992Z,2.7
2022-10-04T08:42:25.226Z,3
2022-10-04T08:43:41.462Z,2.8
2022-10-04T08:44:57.708Z,2.8
2022-10-04T08:46:13.935Z,3
2022-10-04T08:47:30.172Z,2.9
2022-10-04T08:48:46.416Z,3
2022-10-04T08:51:18.898Z,2.7
2022-10-04T08:52:35.132Z,2.8
2022-10-04T08:53:51.373Z,2.7
2022-10-04T08:55:07.629Z,2.8
2022-10-04T08:56:23.855Z,2.9
2022-10-04T08:57:39.114Z,2.7
2022-10-04T08:58:55.355Z,2.9
2022-10-04T09:00:11.602Z,3
2022-10-04T09:02:44.071Z,2.7
2022-10-04T09:04:00.305Z,2.9
2022-10-04T09:05:15.564Z,2.8
2022-10-04T09:06:30.834Z,2.8
2022-10-04T09:07:47.075Z,2.4
2022-10-04T09:09:03.298Z,2.8
2022-10-04T09:10:19.544Z,2.9
2022-10-04T09:11:35.781Z,2.9
2022-10-04T09:12:52.034Z,2.8
2022-10-04T09:14:08.267Z,2.9
2022-10-04T09:15:24.514Z,2.8
2022-10-04T09:17:56.991Z,3
2022-10-04T09:19:13.234Z,3
2022-10-04T09:20:29.457Z,2.9
2022-10-04T09:21:45.705Z,2.7
2022-10-04T09:23:01.939Z,2.8
2022-10-04T09:24:18.193Z,2.8
2022-10-04T09:25:33.448Z,3.1
2022-10-04T09:26:49.687Z,2.9
2022-10-04T09:28:05.919Z,2.9
2022-10-04T09:29:22.163Z,2.7
2022-10-04T09:30:38.392Z,3
2022-10-04T09:33:10.880Z,2.7
2022-10-04T09:34:27.111Z,3.1
2022-10-04T09:35:43.348Z,2.9
2022-10-04T09:38:15.834Z,2.5
2022-10-04T09:42:04.551Z,3
2022-10-04T09:43:19.809Z,3
2022-10-04T09:44:36.045Z,2.8
2022-10-04T09:45:52.282Z,2.9
2022-10-04T09:47:08.536Z,2.7
2022-10-04T09:48:24.763Z,2.8
2022-10-04T09:49:41.015Z,2.7
2022-10-04T09:50:56.277Z,3.1
2022-10-04T09:52:12.518Z,3
2022-10-04T09:53:28.755Z,3
2022-10-04T09:56:01.237Z,2.7
2022-10-04T09:57:17.468Z,2.7
2022-10-04T09:58:33.711Z,2.7
2022-10-04T09:59:49.952Z,2.6
2022-10-04T10:01:06.198Z,2.7
2022-10-04T10:02:22.438Z,3.1
2022-10-04T10:03:38.658Z,2.9
2022-10-04T10:04:54.918Z,2.6
2022-10-04T10:06:11.145Z,3
2022-10-04T10:07:27.391Z,2.8
2022-10-04T10:08:42.639Z,2.8
2022-10-04T10:09:57.915Z,2.8
2022-10-04T10:11:14.155Z,2.7
2022-10-04T10:12:30.384Z,3
2022-10-04T10:13:46.615Z,2.9
2022-10-04T10:15:02.870Z,2.9
2022-10-04T10:16:19.108Z,3.1
2022-10-04T10:17:35.344Z,3
2022-10-04T10:18:51.585Z,3.1
2022-10-04T10:20:07.831Z,3.5
2022-10-04T10:21:24.070Z,3.5
2022-10-04T10:22:39.332Z,3.5
2022-10-04T10:23:55.552Z,3.3
2022-10-04T10:25:10.819Z,3.3
2022-10-04T10:26:27.062Z,3.1
2022-10-04T10:27:43.292Z,3.1
2022-10-04T10:28:59.529Z,3.2
2022-10-04T10:30:15.768Z,3.1
2022-10-04T10:31:32.025Z,3.3
2022-10-04T10:34:04.496Z,3
2022-10-04T10:35:20.743Z,2.9
2022-10-04T10:36:36.985Z,3.1
2022-10-04T10:37:53.204Z,3
2022-10-04T10:39:09.445Z,3.1
2022-10-04T10:41:41.938Z,3
2022-10-04T10:42:58.164Z,2.5
2022-10-04T10:44:13.439Z,2.7
2022-10-04T10:45:29.677Z,3
2022-10-04T10:46:44.923Z,2.6
2022-10-04T10:49:17.406Z,2.6
2022-10-04T10:50:33.647Z,2.8
2022-10-04T10:51:49.883Z,3.1
2022-10-04T10:53:06.140Z,2.8
2022-10-04T10:54:22.368Z,2.8
2022-10-04T10:55:38.612Z,2.8
2022-10-04T10:56:54.846Z,2.8
2022-10-04T10:58:11.089Z,3
2022-10-04T10:59:27.336Z,2.8
2022-10-04T11:00:43.576Z,2.5
2022-10-04T11:01:59.806Z,2.1
2022-10-04T11:03:15.057Z,2.7
2022-10-04T11:04:31.303Z,2.9
2022-10-04T11:05:47.550Z,3.1
2022-10-04T11:07:03.784Z,3
2022-10-04T11:08:20.000Z,3
2022-10-04T11:09:36.272Z,2.4
2022-10-04T11:10:52.506Z,2.5
2022-10-04T11:12:07.765Z,2.2
2022-10-04T11:13:23.016Z,1.9
2022-10-04T11:14:39.252Z,2.2
2022-10-04T11:15:55.500Z,2.7
2022-10-04T11:17:11.745Z,2.6
2022-10-04T11:18:27.979Z,2.4
2022-10-04T11:21:00.457Z,2.2
2022-10-04T11:22:16.698Z,2.6
2022-10-04T11:23:32.931Z,2.7
2022-10-04T11:24:49.168Z,3
2022-10-04T11:26:05.419Z,4
2022-10-04T11:27:21.643Z,4
2022-10-04T11:28:37.886Z,4.5
2022-10-04T11:29:53.157Z,2.7
2022-10-04T11:31:09.386Z,3
2022-10-04T11:32:25.638Z,5.1
2022-10-04T11:33:41.859Z,4.7
2022-10-04T11:34:58.104Z,7.3
2022-10-04T11:36:14.357Z,3.4
2022-10-04T11:37:30.583Z,2.9
2022-10-04T11:38:46.823Z,2.5
2022-10-04T11:40:03.070Z,2.4
2022-10-04T11:42:35.540Z,8
2022-10-04T11:43:51.778Z,2.4
2022-10-04T11:46:24.259Z,2.5
2022-10-04T11:47:39.529Z,2.9
2022-10-04T11:48:54.777Z,2.8
2022-10-04T11:50:11.018Z,3.2
2022-10-04T11:51:27.252Z,4
2022-10-04T11:52:43.500Z,4.4
2022-10-04T11:53:59.737Z,3.4
2022-10-04T11:55:15.973Z,2.8
2022-10-04T11:56:32.219Z,2.8
2022-10-04T11:57:48.449Z,2.1
2022-10-04T11:59:04.697Z,2.2
2022-10-04T12:00:20.937Z,2.1
2022-10-04T12:01:37.177Z,2.1
2022-10-04T12:02:53.413Z,2.2
2022-10-04T12:04:08.678Z,2.4
2022-10-04T12:05:23.930Z,2.3
2022-10-04T12:06:40.179Z,2.2
2022-10-04T12:07:56.407Z,2.2
2022-10-04T12:09:12.656Z,2.1
2022-10-04T12:10:28.890Z,2.2
2022-10-04T12:11:45.123Z,2.3
2022-10-04T12:13:01.372Z,1.9
2022-10-04T12:14:17.618Z,2
2022-10-04T12:15:33.853Z,2
2022-10-04T12:16:50.086Z,2.2
2022-10-04T12:18:06.338Z,2.1
2022-10-04T12:20:38.800Z,2.2
2022-10-04T12:21:54.066Z,2.2
2022-10-04T12:23:10.307Z,2
2022-10-04T12:24:26.533Z,2.1
2022-10-04T12:25:42.786Z,2.2
2022-10-04T12:26:59.026Z,2
2022-10-04T12:28:15.261Z,2.2
2022-10-04T12:29:31.509Z,2.2
2022-10-04T12:30:47.746Z,2.1
2022-10-04T12:32:03.978Z,2.1
2022-10-04T12:33:20.216Z,2
2022-10-04T12:35:52.692Z,2.2
2022-10-04T12:39:41.423Z,2.1
2022-10-04T12:40:57.668Z,2.2
2022-10-04T12:43:29.149Z,2.1
2022-10-04T12:44:44.414Z,2.1
2022-10-04T12:45:59.673Z,2.2
2022-10-04T12:47:15.915Z,2.1
2022-10-04T12:48:32.155Z,2.1
2022-10-04T12:53:37.123Z,2.2
2022-10-04T12:54:53.352Z,2.1
2022-10-04T12:56:09.602Z,2.1
2022-10-04T12:57:25.828Z,2.1
2022-10-04T12:58:42.063Z,2
2022-10-04T12:59:58.312Z,2
2022-10-04T13:01:14.546Z,2.3
2022-10-04T13:03:47.031Z,2.2
2022-10-04T13:05:03.265Z,2.3
2022-10-04T13:06:18.525Z,2.2
2022-10-04T13:07:33.786Z,2.1
2022-10-04T13:08:50.022Z,2.2
2022-10-04T13:10:06.267Z,2.1
2022-10-04T13:11:22.515Z,1.9
2022-10-04T13:13:54.975Z,2.1
2022-10-04T13:15:11.222Z,1.9
2022-10-04T13:16:27.473Z,1.8
2022-10-04T13:17:43.714Z,1.8
2022-10-04T13:18:59.946Z,1.9
2022-10-04T13:20:16.194Z,1.8
2022-10-04T13:21:32.413Z,2
2022-10-04T13:22:48.660Z,2.1
2022-10-04T13:25:20.155Z,1.8
2022-10-04T13:30:25.111Z,2.1
2022-10-04T13:31:41.361Z,2.2
2022-10-04T13:32:57.599Z,2.1
2022-10-04T13:34:13.827Z,2.2
2022-10-04T13:35:30.077Z,1.9
2022-10-04T13:36:46.321Z,2.2
2022-10-04T13:38:02.556Z,2
2022-10-04T13:40:35.034Z,2
2022-10-04T13:41:50.281Z,1.9
2022-10-04T13:43:06.523Z,1.9
2022-10-04T13:44:22.766Z,1.7
2022-10-04T13:45:39.017Z,1.8
2022-10-04T13:46:55.251Z,2
2022-10-04T13:48:11.482Z,2.2
2022-10-04T13:49:27.719Z,2.3
2022-10-04T13:52:00.214Z,2.2
2022-10-04T13:53:16.454Z,2.3
2022-10-04T13:54:32.684Z,2.1
2022-10-04T13:55:48.915Z,2.1
2022-10-04T13:57:05.160Z,2
2022-10-04T13:58:20.418Z,1.9
2022-10-04T13:59:36.668Z,2
2022-10-04T14:00:52.908Z,2.1
2022-10-04T14:02:09.147Z,2.2
2022-10-04T14:03:25.384Z,1.8
2022-10-04T14:04:41.615Z,2
2022-10-04T14:07:13.122Z,2
2022-10-04T14:09:44.623Z,2.1
2022-10-04T14:10:59.871Z,2.8
2022-10-04T14:13:32.369Z,2.5
2022-10-04T14:14:48.605Z,2.3
2022-10-04T14:16:04.847Z,2.6
2022-10-04T14:17:21.077Z,2.8
2022-10-04T14:18:37.324Z,3.1
2022-10-04T14:19:53.560Z,3.1
2022-10-04T14:22:26.028Z,2.1
2022-10-04T14:23:42.269Z,1.9
2022-10-04T14:24:58.525Z,2.2
2022-10-04T14:26:14.747Z,1.7
2022-10-04T14:27:30.016Z,1.7
2022-10-04T14:30:02.493Z,4.7
2022-10-04T14:31:18.741Z,1.6
2022-10-04T14:33:51.218Z,1.9
2022-10-04T14:35:07.450Z,4
2022-10-04T14:36:23.687Z,3.1
2022-10-04T14:37:39.930Z,5.8
2022-10-04T14:38:56.160Z,3.1
2022-10-04T14:40:12.406Z,1.9
2022-10-04T14:41:28.655Z,2.1
2022-10-04T14:42:44.894Z,2.1
2022-10-04T14:44:00.134Z,2.2
2022-10-04T14:45:16.386Z,1.7
2022-10-04T14:46:32.618Z,1.7
2022-10-04T14:47:48.870Z,1.7
2022-10-04T14:50:21.331Z,1.9
2022-10-04T14:51:37.568Z,1.7
2022-10-04T14:52:53.804Z,2
2022-10-04T14:54:10.052Z,1.9
2022-10-04T14:55:26.289Z,1.7
2022-10-04T14:56:42.520Z,1.8
2022-10-04T14:57:58.771Z,1.7
2022-10-04T14:59:15.007Z,2
2022-10-04T15:00:30.252Z,1.8
2022-10-04T15:01:45.509Z,1.6
2022-10-04T15:03:01.762Z,1.7
2022-10-04T15:04:17.989Z,1.9
2022-10-04T15:05:34.227Z,1.9
2022-10-04T15:06:50.476Z,1.7
2022-10-04T15:08:06.714Z,1.7
2022-10-04T15:09:22.946Z,1.7
2022-10-04T15:10:39.190Z,1.9
2022-10-04T15:11:55.425Z,1.9
2022-10-04T15:13:11.667Z,1.8
2022-10-04T15:14:26.941Z,1.6
2022-10-04T15:15:42.183Z,1.7
2022-10-04T15:16:58.422Z,1.6
2022-10-04T15:18:14.669Z,1.7
2022-10-04T15:19:30.900Z,1.7
2022-10-04T15:20:47.139Z,1.7
2022-10-04T15:22:03.379Z,1.6
2022-10-04T15:23:19.624Z,1.7
2022-10-04T15:24:35.867Z,1.9
2022-10-04T15:25:52.097Z,1.8
2022-10-04T15:27:08.355Z,1.7
2022-10-04T15:28:24.597Z,1.6
2022-10-04T15:29:40.832Z,1.6
2022-10-04T15:30:57.062Z,1.6
2022-10-04T15:32:13.301Z,1.5
2022-10-04T15:33:28.561Z,1.6
2022-10-04T15:34:44.810Z,1.5
2022-10-04T15:36:01.031Z,1.7
2022-10-04T15:38:33.513Z,1.6
2022-10-04T15:39:49.769Z,1.7
2022-10-04T15:41:05.996Z,2
2022-10-04T15:42:22.240Z,1.8
2022-10-04T15:43:38.483Z,1.8
2022-10-04T15:44:54.719Z,1.9
2022-10-04T15:46:10.948Z,1.7
2022-10-04T15:47:27.207Z,2.2
2022-10-04T15:48:43.427Z,2
2022-10-04T15:49:58.685Z,1.8
2022-10-04T15:51:14.928Z,1.9
2022-10-04T15:52:31.178Z,1.8
2022-10-04T15:53:47.419Z,1.8
2022-10-04T15:55:03.643Z,1.9
2022-10-04T15:56:19.896Z,2.5
2022-10-04T15:57:36.130Z,2.7
2022-10-04T16:00:08.604Z,2.4
2022-10-04T16:01:24.852Z,2.2
2022-10-04T16:02:41.083Z,1.9
2022-10-04T16:03:57.329Z,1.7
2022-10-04T16:05:13.562Z,1.8
2022-10-04T16:06:28.820Z,1.9
2022-10-04T16:07:45.056Z,2
2022-10-04T16:09:01.295Z,1.8
2022-10-04T16:10:17.537Z,2
2022-10-04T16:11:33.790Z,2
2022-10-04T16:12:50.025Z,1.9
2022-10-04T16:16:38.749Z,2
2022-10-04T16:17:53.997Z,2
2022-10-04T16:19:09.262Z,2.1
2022-10-04T16:20:25.502Z,2.5
2022-10-04T16:21:41.746Z,2.5
2022-10-04T16:24:14.223Z,2.1
2022-10-04T16:25:30.447Z,2.1
2022-10-04T16:28:02.930Z,2
2022-10-04T16:29:19.184Z,2.1
2022-10-04T16:30:35.420Z,1.6
2022-10-04T16:31:51.649Z,1.7
2022-10-04T16:33:07.896Z,1.7
2022-10-04T16:34:23.148Z,1.9
2022-10-04T16:35:38.414Z,1.8
2022-10-04T16:36:54.644Z,1.8
2022-10-04T16:40:43.376Z,2
2022-10-04T16:41:59.598Z,2
2022-10-04T16:43:15.851Z,2.1
2022-10-04T16:44:32.091Z,2
2022-10-04T16:47:04.575Z,2.1
2022-10-04T16:48:20.809Z,2.2
2022-10-04T16:49:37.049Z,2.1
2022-10-04T16:50:53.282Z,2.1
2022-10-04T16:52:08.532Z,2.2
2022-10-04T16:54:41.011Z,2.2
2022-10-04T16:55:57.267Z,2.3
2022-10-04T16:57:13.497Z,2.4
2022-10-04T16:58:29.736Z,2.5
2022-10-04T16:59:45.991Z,2.3
2022-10-04T17:03:34.700Z,2.1
2022-10-04T17:04:50.947Z,2.2
2022-10-04T17:06:07.189Z,2.2
2022-10-04T17:07:23.425Z,2.4
2022-10-04T17:08:38.676Z,2.3
2022-10-04T17:09:54.910Z,2.1
2022-10-04T17:11:11.156Z,2.2
2022-10-04T17:12:27.396Z,2.3
2022-10-04T17:13:43.639Z,2.1
2022-10-04T17:14:59.881Z,2.3
2022-10-04T17:17:32.473Z,2.3
2022-10-04T17:18:48.768Z,2.1
2022-10-04T17:20:05.045Z,2
2022-10-04T17:21:21.336Z,2.3
2022-10-04T17:22:37.631Z,2.1
2022-10-04T17:23:53.939Z,2.2
2022-10-04T17:25:09.236Z,2.1
2022-10-04T17:26:25.528Z,2.3
2022-10-04T17:28:58.132Z,2.5
2022-10-04T17:30:14.424Z,2.3
2022-10-04T17:31:30.719Z,2.3
2022-10-04T17:32:47.012Z,3.6
2022-10-04T17:34:03.311Z,3.7
2022-10-04T17:35:19.600Z,3
2022-10-04T17:36:35.894Z,3
2022-10-04T17:41:41.064Z,3.2
2022-10-04T17:42:56.375Z,3.2
2022-10-04T17:44:12.673Z,3
2022-10-04T17:45:28.964Z,3
2022-10-04T17:48:01.550Z,3.2
2022-10-04T17:49:17.850Z,2.9
2022-10-04T17:51:50.425Z,3.1
2022-10-04T17:53:06.735Z,3.1
2022-10-04T17:54:23.020Z,3.7
2022-10-04T17:55:39.323Z,3.6
2022-10-04T17:56:55.604Z,4.3
2022-10-04T17:58:11.907Z,4.5
2022-10-04T17:59:27.214Z,5
2022-10-04T18:00:43.501Z,4.6
2022-10-04T18:01:59.806Z,5.3
2022-10-04T18:03:16.094Z,4.7
2022-10-04T18:04:32.399Z,5
2022-10-04T18:07:04.974Z,5.3
2022-10-04T18:08:21.275Z,5.3
2022-10-04T18:09:37.560Z,5.2
2022-10-04T18:10:53.873Z,4.8
2022-10-04T18:12:10.161Z,5
2022-10-04T18:13:26.442Z,5.5
2022-10-04T18:14:42.740Z,5
2022-10-04T18:17:14.349Z,4.6
2022-10-04T18:18:30.640Z,5.3
2022-10-04T18:19:46.941Z,5.2
2022-10-04T18:21:03.237Z,4.9
2022-10-04T18:22:19.520Z,4.7
2022-10-04T18:23:35.826Z,4.7
2022-10-04T18:24:52.113Z,4.2
2022-10-04T18:26:07.425Z,4.1
2022-10-04T18:27:23.723Z,4.5
2022-10-04T18:28:40.020Z,4.9
2022-10-04T18:29:56.318Z,4.8
2022-10-04T18:31:12.611Z,4.8
2022-10-04T18:32:28.903Z,4.7
2022-10-04T18:33:44.205Z,4.1
2022-10-04T18:34:59.512Z,4
2022-10-04T18:36:15.822Z,4.2
2022-10-04T18:37:32.111Z,3.8
2022-10-04T18:38:48.396Z,4.6
2022-10-04T18:40:04.689Z,4.5
2022-10-04T18:41:20.995Z,4.6
2022-10-04T18:42:37.295Z,8.1
2022-10-04T18:43:53.578Z,9.4
2022-10-04T18:45:09.879Z,5.7
2022-10-04T18:46:26.166Z,6.1
2022-10-04T18:48:57.782Z,3.3
2022-10-04T18:50:13.089Z,4
2022-10-04T18:51:29.384Z,5.6
2022-10-04T18:52:45.669Z,10.9
2022-10-04T18:54:01.980Z,5.1
2022-10-04T18:55:18.258Z,5.1
2022-10-04T18:56:34.553Z,4
2022-10-04T18:57:50.843Z,4.8
2022-10-04T18:59:07.153Z,4
2022-10-04T19:00:23.436Z,4.6
2022-10-04T19:01:38.757Z,4.5
2022-10-04T19:02:54.069Z,4.3
2022-10-04T19:04:10.363Z,4.8
2022-10-04T19:05:26.655Z,4.8
2022-10-04T19:06:42.941Z,4.5
2022-10-04T19:07:59.244Z,5.8
2022-10-04T19:10:31.823Z,4.3
2022-10-04T19:13:04.412Z,26.9
2022-10-04T19:14:20.712Z,13.9
2022-10-04T19:15:36.997Z,20.1
2022-10-04T19:16:53.302Z,5.2
2022-10-04T19:18:08.622Z,4.9
2022-10-04T19:20:40.223Z,5.3
2022-10-04T19:21:56.507Z,5.4
2022-10-04T19:23:12.802Z,5
2022-10-04T19:24:29.106Z,5.2
2022-10-04T19:25:45.390Z,4.7
2022-10-04T19:27:01.683Z,4.5
2022-10-04T19:28:17.984Z,4.5
2022-10-04T19:29:34.286Z,4.4
2022-10-04T19:30:50.569Z,4.4
2022-10-04T19:32:06.876Z,4.4
2022-10-04T19:33:23.161Z,4.5
2022-10-04T19:34:38.483Z,4
2022-10-04T19:35:54.771Z,4.1
2022-10-04T19:37:10.088Z,3.9
2022-10-04T19:38:26.372Z,3.9
2022-10-04T19:39:42.677Z,4.3
2022-10-04T19:40:58.950Z,3.9
2022-10-04T19:42:15.250Z,4.3
2022-10-04T19:43:31.537Z,4.5
2022-10-04T19:44:47.847Z,4.6